createdAt,value
2018-05-18T00:00:01.604Z,6.77
2018-05-18T00:02:29.789Z,7.40
2018-05-18T00:04:58.061Z,5.67
2018-05-18T00:07:26.337Z,7.00
2018-05-18T00:09:54.626Z,6.97
2018-05-18T00:12:22.905Z,6.73
2018-05-18T00:14:51.194Z,7.13
2018-05-18T00:17:19.501Z,6.53
2018-05-18T00:19:47.786Z,6.83
2018-05-18T00:22:16.062Z,6.33
2018-05-18T00:24:44.346Z,6.77
2018-05-18T00:27:12.622Z,6.00
2018-05-18T00:29:40.920Z,5.87
2018-05-18T00:32:09.181Z,6.50
2018-05-18T00:34:37.490Z,5.33
2018-05-18T00:37:05.784Z,5.80
2018-05-18T00:39:34.046Z,6.60
2018-05-18T00:42:02.334Z,5.50
2018-05-18T00:44:30.606Z,6.03
2018-05-18T00:46:58.894Z,6.70
2018-05-18T00:49:27.170Z,6.97
2018-05-18T00:51:55.458Z,7.27
2018-05-18T00:54:23.730Z,5.93
2018-05-18T00:56:52.027Z,5.93
2018-05-18T00:59:20.306Z,6.50
2018-05-18T01:01:48.591Z,6.93
2018-05-18T01:04:16.880Z,7.70
2018-05-18T01:06:45.164Z,6.73
2018-05-18T01:09:13.446Z,6.20
2018-05-18T01:11:41.718Z,7.33
2018-05-18T01:14:10.033Z,5.87
2018-05-18T01:16:38.324Z,6.50
2018-05-18T01:19:06.618Z,6.80
2018-05-18T01:21:34.910Z,7.27
2018-05-18T01:24:03.192Z,6.93
2018-05-18T01:26:31.556Z,6.43
2018-05-18T01:28:59.761Z,6.23
2018-05-18T01:31:28.030Z,6.77
2018-05-18T01:33:56.321Z,6.77
2018-05-18T01:36:24.590Z,5.57
2018-05-18T01:38:52.870Z,6.47
2018-05-18T01:41:21.158Z,6.40
2018-05-18T01:43:49.454Z,5.80
2018-05-18T01:46:17.734Z,5.40
2018-05-18T01:48:46.015Z,6.13
2018-05-18T01:51:14.312Z,6.00
2018-05-18T01:53:42.626Z,6.10
2018-05-18T01:56:10.902Z,5.97
2018-05-18T01:58:39.184Z,6.50
2018-05-18T02:01:07.462Z,6.40
2018-05-18T02:03:35.746Z,8.53
2018-05-18T02:06:04.025Z,7.03
2018-05-18T02:08:32.311Z,6.87
2018-05-18T02:11:00.582Z,7.73
2018-05-18T02:13:29.136Z,6.80
2018-05-18T02:15:57.414Z,7.90
2018-05-18T02:18:25.688Z,6.67
2018-05-18T02:20:53.966Z,6.60
2018-05-18T02:23:22.242Z,6.73
2018-05-18T02:25:50.525Z,7.10
2018-05-18T02:28:18.800Z,7.67
2018-05-18T02:30:47.086Z,6.73
2018-05-18T02:33:15.355Z,6.97
2018-05-18T02:35:43.673Z,7.07
2018-05-18T02:38:11.954Z,7.30
2018-05-18T02:40:40.258Z,7.47
2018-05-18T02:43:08.548Z,7.13
2018-05-18T02:45:36.898Z,7.30
2018-05-18T02:48:05.111Z,6.73
2018-05-18T02:50:33.387Z,7.70
2018-05-18T02:53:01.670Z,7.40
2018-05-18T02:55:29.942Z,7.10
2018-05-18T02:57:58.578Z,7.73
2018-05-18T03:00:26.859Z,6.63
2018-05-18T03:02:55.154Z,6.97
2018-05-18T03:05:23.444Z,7.77
2018-05-18T03:07:51.720Z,6.83
2018-05-18T03:10:20.002Z,6.30
2018-05-18T03:12:48.282Z,7.13
2018-05-18T03:15:16.562Z,7.83
2018-05-18T03:17:44.834Z,8.40
2018-05-18T03:20:13.129Z,8.93
2018-05-18T03:22:41.406Z,7.53
2018-05-18T03:25:09.685Z,7.73
2018-05-18T03:27:37.969Z,8.33
2018-05-18T03:30:06.252Z,8.00
2018-05-18T03:32:34.529Z,7.63
2018-05-18T03:35:02.811Z,8.57
2018-05-18T03:37:31.101Z,10.00
2018-05-18T03:39:59.391Z,10.87
2018-05-18T03:42:27.682Z,13.17
2018-05-18T03:44:55.970Z,12.57
2018-05-18T03:47:24.258Z,15.67
2018-05-18T03:49:52.554Z,15.63
2018-05-18T03:52:20.830Z,17.43
2018-05-18T03:54:49.135Z,16.07
2018-05-18T03:57:17.426Z,16.23
2018-05-18T03:59:45.738Z,17.50
2018-05-18T04:02:25.768Z,21.50
2018-05-18T04:05:05.830Z,26.00
2018-05-18T04:10:36.666Z,28.03
2018-05-18T04:13:04.949Z,30.90
2018-05-18T04:15:33.261Z,30.87
2018-05-18T04:18:01.538Z,27.47
2018-05-18T04:20:30.178Z,29.93
2018-05-18T04:22:58.458Z,33.60
2018-05-18T04:25:26.738Z,32.00
2018-05-18T04:27:55.045Z,31.63
2018-05-18T04:30:23.365Z,29.57
2018-05-18T04:32:51.613Z,30.00
2018-05-18T04:35:19.950Z,30.00
2018-05-18T04:37:48.242Z,27.23
2018-05-18T04:40:16.525Z,28.77
2018-05-18T04:42:44.822Z,25.27
2018-05-18T04:45:13.110Z,28.97
2018-05-18T04:47:41.391Z,22.50
2018-05-18T04:50:09.691Z,25.10
2018-05-18T04:52:37.983Z,21.73
2018-05-18T04:55:06.283Z,22.77
2018-05-18T04:57:34.562Z,25.37
2018-05-18T05:00:02.859Z,24.53
2018-05-18T05:02:31.142Z,24.40
2018-05-18T05:04:59.446Z,24.63
2018-05-18T05:07:27.731Z,19.80
2018-05-18T05:09:56.019Z,19.47
2018-05-18T05:12:24.314Z,21.87
2018-05-18T05:14:52.596Z,20.00
2018-05-18T05:17:20.891Z,16.63
2018-05-18T05:19:49.170Z,17.30
2018-05-18T05:22:17.461Z,15.13
2018-05-18T05:24:45.750Z,16.97
2018-05-18T05:27:14.045Z,16.60
2018-05-18T05:29:42.482Z,14.80
2018-05-18T05:32:10.758Z,14.07
2018-05-18T05:34:39.054Z,13.87
2018-05-18T05:37:07.334Z,12.70
2018-05-18T05:39:35.622Z,12.63
2018-05-18T05:42:05.830Z,11.53
2018-05-18T05:44:34.136Z,10.63
2018-05-18T05:47:02.418Z,10.77
2018-05-18T05:49:30.726Z,13.23
2018-05-18T05:51:59.014Z,10.73
2018-05-18T05:54:27.294Z,11.27
2018-05-18T05:56:55.593Z,12.87
2018-05-18T05:59:23.886Z,12.83
2018-05-18T06:01:52.182Z,11.83
2018-05-18T06:04:20.466Z,12.00
2018-05-18T06:06:48.762Z,11.90
2018-05-18T06:09:17.049Z,12.07
2018-05-18T06:11:45.341Z,10.70
2018-05-18T06:14:13.624Z,12.93
2018-05-18T06:16:42.058Z,13.40
2018-05-18T06:19:10.349Z,14.60
2018-05-18T06:21:38.634Z,14.73
2018-05-18T06:24:06.931Z,16.83
2018-05-18T06:26:35.214Z,15.50
2018-05-18T06:29:03.505Z,14.80
2018-05-18T06:31:31.785Z,16.93
2018-05-18T06:34:00.086Z,15.53
2018-05-18T06:36:28.389Z,14.90
2018-05-18T06:38:56.666Z,15.30
2018-05-18T06:41:24.965Z,14.43
2018-05-18T06:43:53.245Z,14.47
2018-05-18T06:46:21.538Z,15.77
2018-05-18T06:48:49.822Z,16.10
2018-05-18T06:51:18.136Z,16.83
2018-05-18T06:53:46.415Z,17.47
2018-05-18T06:56:14.702Z,19.20
2018-05-18T06:58:43.041Z,17.53
2018-05-18T07:01:11.269Z,21.47
2018-05-18T07:03:39.578Z,19.40
2018-05-18T07:06:07.865Z,23.30
2018-05-18T07:08:36.153Z,22.70
2018-05-18T07:11:04.439Z,21.93
2018-05-18T07:13:33.065Z,18.83
2018-05-18T07:16:01.394Z,21.97
2018-05-18T07:18:29.650Z,25.10
2018-05-18T07:20:58.066Z,21.40
2018-05-18T07:23:26.433Z,23.10
2018-05-18T07:25:54.706Z,21.80
2018-05-18T07:28:22.977Z,24.93
2018-05-18T07:30:52.193Z,25.40
2018-05-18T07:33:20.473Z,23.93
2018-05-18T07:35:49.032Z,22.77
2018-05-18T07:38:17.310Z,26.97
2018-05-18T07:40:45.591Z,25.83
2018-05-18T07:43:13.883Z,32.53
2018-05-18T07:45:42.170Z,28.13
2018-05-18T07:48:10.470Z,27.17
2018-05-18T07:50:38.758Z,28.23
2018-05-18T07:53:07.054Z,33.63
2018-05-18T07:55:35.441Z,31.20
2018-05-18T07:58:03.730Z,32.83
2018-05-18T08:00:32.019Z,33.10
2018-05-18T08:03:00.306Z,32.57
2018-05-18T08:05:28.590Z,32.00
2018-05-18T08:07:57.062Z,31.67
2018-05-18T08:10:26.803Z,28.07
2018-05-18T08:12:55.106Z,27.97
2018-05-18T08:15:23.398Z,30.60
2018-05-18T08:17:51.691Z,28.13
2018-05-18T08:20:19.986Z,30.20
2018-05-18T08:22:48.265Z,29.57
2018-05-18T08:25:16.546Z,28.53
2018-05-18T08:27:44.868Z,24.90
2018-05-18T08:30:13.126Z,27.93
2018-05-18T08:32:41.426Z,26.57
2018-05-18T08:35:09.706Z,24.77
2018-05-18T08:37:38.108Z,25.67
2018-05-18T08:40:06.482Z,27.70
2018-05-18T08:42:34.760Z,24.90
2018-05-18T08:45:03.042Z,24.87
2018-05-18T08:47:31.328Z,21.47
2018-05-18T08:49:59.678Z,23.73
2018-05-18T08:52:27.894Z,23.47
2018-05-18T08:54:56.195Z,23.90
2018-05-18T08:57:24.477Z,23.93
2018-05-18T08:59:52.777Z,21.87
2018-05-18T09:02:21.074Z,22.10
2018-05-18T09:04:49.354Z,21.50
2018-05-18T09:07:17.638Z,22.37
2018-05-18T09:09:45.926Z,24.07
2018-05-18T09:12:14.214Z,27.33
2018-05-18T09:14:42.556Z,21.83
2018-05-18T09:17:10.853Z,22.03
2018-05-18T09:19:39.130Z,26.10
2018-05-18T09:22:07.450Z,25.97
2018-05-18T09:24:35.734Z,22.47
2018-05-18T09:27:04.045Z,26.17
2018-05-18T09:29:32.314Z,24.53
2018-05-18T09:32:01.626Z,21.83
2018-05-18T09:34:29.922Z,20.60
2018-05-18T09:36:58.259Z,21.43
2018-05-18T09:39:26.554Z,19.40
2018-05-18T09:41:54.834Z,19.13
2018-05-18T09:44:23.122Z,17.47
2018-05-18T09:46:51.402Z,19.57
2018-05-18T09:49:19.702Z,17.03
2018-05-18T09:51:47.991Z,20.67
2018-05-18T09:54:16.351Z,20.30
2018-05-18T09:56:44.572Z,20.70
2018-05-18T09:59:12.851Z,21.20
2018-05-18T10:01:41.137Z,20.13
2018-05-18T10:04:09.415Z,20.57
2018-05-18T10:06:37.717Z,21.77
2018-05-18T10:09:06.758Z,23.33
2018-05-18T10:11:35.358Z,22.83
2018-05-18T10:14:03.658Z,24.47
2018-05-18T10:16:32.898Z,22.77
2018-05-18T10:19:01.192Z,22.00
2018-05-18T10:21:29.470Z,19.17
2018-05-18T10:23:57.767Z,19.57
2018-05-18T10:26:26.043Z,18.90
2018-05-18T10:28:54.334Z,16.83
2018-05-18T10:31:22.614Z,18.80
2018-05-18T10:33:50.910Z,18.57
2018-05-18T10:36:19.193Z,17.87
2018-05-18T10:38:47.497Z,16.90
2018-05-18T10:41:15.800Z,16.80
2018-05-18T10:43:44.079Z,17.00
2018-05-18T10:46:19.522Z,15.90
2018-05-18T10:48:49.197Z,15.17
2018-05-18T10:51:17.537Z,14.30
2018-05-18T10:53:45.806Z,13.40
2018-05-18T10:56:14.134Z,14.00
2018-05-18T10:58:42.463Z,13.03
2018-05-18T11:01:10.782Z,12.77
2018-05-18T11:03:39.333Z,12.03
2018-05-18T11:06:07.611Z,11.60
2018-05-18T11:08:35.930Z,10.93
2018-05-18T11:11:04.212Z,11.53
2018-05-18T11:13:32.508Z,11.83
2018-05-18T11:16:00.789Z,11.87
2018-05-18T11:18:29.080Z,11.30
2018-05-18T11:20:57.357Z,11.63
2018-05-18T11:23:25.646Z,10.27
2018-05-18T11:25:53.938Z,10.60
2018-05-18T11:28:22.225Z,10.53
2018-05-18T11:30:50.523Z,11.10
2018-05-18T11:33:18.804Z,10.70
2018-05-18T11:35:47.109Z,10.40
2018-05-18T11:38:15.386Z,11.37
2018-05-18T11:40:43.682Z,10.60
2018-05-18T11:43:11.966Z,10.60
2018-05-18T11:45:40.259Z,10.63
2018-05-18T11:48:08.662Z,9.90
2018-05-18T11:50:36.830Z,10.47
2018-05-18T11:53:05.153Z,9.50
2018-05-18T11:55:33.434Z,10.10
2018-05-18T11:58:01.730Z,9.37
2018-05-18T12:00:29.994Z,9.03
2018-05-18T12:02:58.393Z,9.60
2018-05-18T12:05:26.605Z,8.57
2018-05-18T12:07:54.903Z,7.83
2018-05-18T12:10:23.186Z,7.80
2018-05-18T12:12:51.458Z,8.33
2018-05-18T12:15:19.753Z,8.70
2018-05-18T12:17:48.026Z,8.80
2018-05-18T12:20:16.365Z,8.83
2018-05-18T12:22:44.600Z,7.40
2018-05-18T12:25:12.883Z,8.33
2018-05-18T12:27:41.178Z,8.57
2018-05-18T12:30:09.449Z,7.80
2018-05-18T12:32:37.733Z,8.43
2018-05-18T12:35:06.009Z,7.80
2018-05-18T12:37:34.317Z,8.07
2018-05-18T12:40:02.598Z,7.80
2018-05-18T12:42:30.886Z,7.70
2018-05-18T12:44:59.162Z,7.50
2018-05-18T12:47:27.438Z,8.00
2018-05-18T12:49:55.729Z,8.37
2018-05-18T12:52:24.002Z,7.60
2018-05-18T12:54:52.282Z,7.73
2018-05-18T12:57:20.567Z,7.03
2018-05-18T12:59:48.897Z,6.97
2018-05-18T13:02:17.177Z,6.97
2018-05-18T13:04:45.451Z,7.23
2018-05-18T13:07:13.742Z,7.60
2018-05-18T13:09:42.189Z,7.20
2018-05-18T13:12:10.480Z,6.47
2018-05-18T13:14:38.755Z,6.37
2018-05-18T13:17:07.052Z,6.87
2018-05-18T13:19:35.329Z,6.93
2018-05-18T13:22:03.617Z,6.80
2018-05-18T13:24:31.889Z,6.33
2018-05-18T13:27:00.171Z,6.53
2018-05-18T13:29:28.455Z,6.43
2018-05-18T13:31:56.735Z,7.53
2018-05-18T13:34:25.041Z,7.60
2018-05-18T13:36:53.314Z,6.03
2018-05-18T13:39:21.630Z,7.60
2018-05-18T13:41:49.930Z,6.33
2018-05-18T13:44:18.218Z,7.43
2018-05-18T13:46:46.491Z,6.87
2018-05-18T13:49:14.778Z,7.00
2018-05-18T13:51:43.211Z,6.63
2018-05-18T13:54:11.368Z,6.53
2018-05-18T13:56:39.710Z,6.73
2018-05-18T13:59:07.999Z,6.40
2018-05-18T14:01:36.299Z,6.87
2018-05-18T14:04:04.582Z,7.07
2018-05-18T14:06:32.880Z,6.30
2018-05-18T14:09:01.157Z,6.50
2018-05-18T14:11:29.442Z,5.60
2018-05-18T14:13:57.729Z,6.00
2018-05-18T14:16:26.002Z,7.10
2018-05-18T14:18:54.294Z,7.00
2018-05-18T14:21:22.571Z,5.90
2018-05-18T14:23:50.868Z,6.50
2018-05-18T14:26:19.214Z,6.73
2018-05-18T14:28:47.477Z,6.50
2018-05-18T14:31:15.746Z,6.87
2018-05-18T14:33:44.031Z,7.80
2018-05-18T14:36:12.326Z,6.57
2018-05-18T14:38:40.604Z,6.20
2018-05-18T14:41:10.875Z,6.63
2018-05-18T14:43:39.146Z,6.07
2018-05-18T14:46:07.438Z,6.33
2018-05-18T14:48:35.734Z,6.63
2018-05-18T14:51:04.118Z,5.63
2018-05-18T14:53:32.290Z,5.50
2018-05-18T14:56:00.571Z,4.93
2018-05-18T14:58:28.894Z,6.77
2018-05-18T15:00:57.143Z,6.47
2018-05-18T15:03:25.426Z,6.60
2018-05-18T15:05:53.706Z,6.07
2018-05-18T15:08:22.002Z,5.90
2018-05-18T15:10:50.376Z,6.63
2018-05-18T15:13:18.582Z,6.53
2018-05-18T15:15:46.864Z,5.93
2018-05-18T15:18:15.152Z,6.50
2018-05-18T15:20:43.833Z,6.30
2018-05-18T15:23:12.132Z,6.93
2018-05-18T15:25:40.406Z,6.80
2018-05-18T15:28:08.716Z,6.30
2018-05-18T15:30:36.986Z,6.83
2018-05-18T15:33:05.278Z,6.13
2018-05-18T15:35:33.574Z,6.23
2018-05-18T15:38:01.862Z,6.80
2018-05-18T15:40:30.217Z,5.93
2018-05-18T15:42:58.609Z,6.33
2018-05-18T15:45:26.860Z,6.20
2018-05-18T15:47:55.261Z,6.87
2018-05-18T15:50:23.542Z,5.87
2018-05-18T15:52:51.837Z,6.13
2018-05-18T15:55:22.091Z,6.57
2018-05-18T15:57:50.538Z,5.60
2018-05-18T16:00:18.823Z,6.10
2018-05-18T16:02:47.096Z,6.00
2018-05-18T16:05:15.382Z,5.90
2018-05-18T16:07:43.654Z,6.63
2018-05-18T16:10:12.036Z,5.50
2018-05-18T16:12:40.245Z,5.60
2018-05-18T16:15:11.065Z,6.67
2018-05-18T16:17:39.346Z,6.50
2018-05-18T16:20:07.645Z,5.57
2018-05-18T16:22:35.924Z,7.57
2018-05-18T16:25:04.208Z,6.63
2018-05-18T16:27:41.481Z,5.90
2018-05-18T16:30:10.844Z,6.67
2018-05-18T16:32:39.166Z,6.30
2018-05-18T16:35:07.498Z,6.77
2018-05-18T16:37:35.790Z,7.50
2018-05-18T16:40:04.196Z,7.33
2018-05-18T16:42:32.346Z,6.20
2018-05-18T16:45:00.617Z,5.70
2018-05-18T16:47:28.894Z,6.17
2018-05-18T16:49:57.182Z,7.50
2018-05-18T16:52:25.463Z,6.17
2018-05-18T16:54:53.767Z,6.13
2018-05-18T16:57:22.054Z,6.53
2018-05-18T16:59:50.348Z,6.60
2018-05-18T17:02:18.620Z,6.33
2018-05-18T17:04:46.909Z,6.00
2018-05-18T17:07:15.300Z,6.40
2018-05-18T17:09:43.551Z,6.23
2018-05-18T17:12:11.842Z,5.73
2018-05-18T17:14:40.113Z,6.50
2018-05-18T17:17:08.514Z,6.33
2018-05-18T17:19:36.789Z,6.30
2018-05-18T17:22:05.086Z,5.97
2018-05-18T17:24:33.387Z,6.23
2018-05-18T17:27:01.674Z,6.10
2018-05-18T17:29:29.938Z,5.60
2018-05-18T17:31:58.258Z,6.40
2018-05-18T17:34:26.534Z,5.50
2018-05-18T17:36:54.982Z,6.17
2018-05-18T17:39:23.261Z,5.80
2018-05-18T17:41:51.559Z,7.27
2018-05-18T17:44:19.832Z,6.67
2018-05-18T17:46:48.130Z,6.67
2018-05-18T17:49:16.421Z,6.37
2018-05-18T17:51:44.702Z,6.40
2018-05-18T17:54:13.295Z,6.10
2018-05-18T17:56:42.520Z,5.63
2018-05-18T17:59:10.905Z,6.57
2018-05-18T18:01:40.027Z,8.20
2018-05-18T18:04:08.303Z,6.27
2018-05-18T18:06:36.590Z,5.90
2018-05-18T18:09:05.585Z,6.73
2018-05-18T18:11:33.874Z,5.53
2018-05-18T18:14:02.209Z,6.17
2018-05-18T18:16:30.437Z,6.00
2018-05-18T18:18:58.717Z,5.70
2018-05-18T18:21:27.006Z,5.67
2018-05-18T18:23:55.385Z,5.80
2018-05-18T18:26:24.522Z,6.00
2018-05-18T18:28:52.837Z,6.30
2018-05-18T18:31:21.178Z,6.00
2018-05-18T18:33:49.470Z,5.53
2018-05-18T18:36:17.788Z,5.73
2018-05-18T18:38:46.043Z,5.80
2018-05-18T18:41:14.391Z,5.73
2018-05-18T18:43:42.693Z,5.77
2018-05-18T18:46:10.966Z,6.17
2018-05-18T18:48:39.249Z,5.17
2018-05-18T18:51:07.531Z,5.50
2018-05-18T18:53:35.817Z,5.53
2018-05-18T18:56:04.215Z,4.80
2018-05-18T18:58:32.486Z,6.23
2018-05-18T19:01:00.808Z,6.60
2018-05-18T19:03:29.101Z,5.93
2018-05-18T19:05:57.402Z,5.53
2018-05-18T19:08:25.750Z,5.70
2018-05-18T19:10:53.971Z,5.53
2018-05-18T19:13:23.016Z,5.13
2018-05-18T19:15:51.293Z,5.63
2018-05-18T19:18:19.575Z,4.67
2018-05-18T19:20:47.858Z,5.67
2018-05-18T19:23:16.144Z,5.10
2018-05-18T19:25:44.417Z,5.40
2018-05-18T19:28:12.974Z,5.10
2018-05-18T19:30:41.250Z,4.83
2018-05-18T19:33:09.558Z,5.00
2018-05-18T19:35:37.846Z,4.83
2018-05-18T19:38:06.125Z,6.00
2018-05-18T19:40:34.411Z,6.47
2018-05-18T19:43:02.690Z,5.03
2018-05-18T19:45:31.018Z,4.80
2018-05-18T19:47:59.299Z,5.40
2018-05-18T19:50:27.591Z,5.20
2018-05-18T19:52:55.874Z,4.47
2018-05-18T19:55:24.154Z,5.20
2018-05-18T19:57:52.451Z,5.33
2018-05-18T20:00:20.714Z,5.63
2018-05-18T20:02:49.010Z,4.67
2018-05-18T20:05:17.293Z,5.47
2018-05-18T20:07:45.578Z,5.63
2018-05-18T20:10:13.873Z,6.37
2018-05-18T20:12:42.162Z,6.93
2018-05-18T20:15:10.448Z,8.67
2018-05-18T20:17:38.728Z,7.30
2018-05-18T20:20:07.018Z,7.50
2018-05-18T20:22:35.373Z,6.40
2018-05-18T20:25:03.777Z,6.50
2018-05-18T20:27:31.976Z,6.70
2018-05-18T20:30:00.351Z,5.27
2018-05-18T20:32:28.618Z,6.17
2018-05-18T20:34:56.898Z,4.60
2018-05-18T20:37:25.197Z,5.27
2018-05-18T20:39:53.473Z,6.20
2018-05-18T20:42:21.762Z,5.47
2018-05-18T20:44:50.098Z,5.23
2018-05-18T20:47:18.382Z,4.70
2018-05-18T20:49:46.658Z,5.60
2018-05-18T20:52:14.957Z,5.77
2018-05-18T20:54:43.223Z,4.70
2018-05-18T20:57:11.802Z,5.63
2018-05-18T20:59:40.084Z,5.33
2018-05-18T21:02:08.353Z,5.40
2018-05-18T21:04:36.682Z,7.63
2018-05-18T21:07:04.957Z,5.57
2018-05-18T21:09:33.237Z,5.77
2018-05-18T21:12:01.514Z,6.33
2018-05-18T21:14:29.801Z,6.43
2018-05-18T21:16:58.074Z,4.87
2018-05-18T21:19:26.409Z,6.00
2018-05-18T21:21:54.682Z,5.30
2018-05-18T21:24:22.966Z,5.67
2018-05-18T21:26:51.255Z,4.60
2018-05-18T21:29:19.541Z,6.23
2018-05-18T21:31:47.822Z,5.80
2018-05-18T21:34:16.165Z,5.07
2018-05-18T21:36:44.458Z,5.17
2018-05-18T21:39:12.726Z,5.77
2018-05-18T21:41:41.012Z,5.17
2018-05-18T21:44:09.311Z,5.67
2018-05-18T21:46:37.587Z,5.50
2018-05-18T21:49:05.875Z,5.23
2018-05-18T21:51:34.150Z,5.50
2018-05-18T21:54:02.444Z,5.27
2018-05-18T21:56:30.726Z,6.57
2018-05-18T21:58:59.015Z,5.40
2018-05-18T22:01:27.282Z,6.53
2018-05-18T22:03:55.908Z,5.50
2018-05-18T22:06:24.229Z,6.63
2018-05-18T22:08:52.483Z,6.10
2018-05-18T22:11:20.770Z,6.00
2018-05-18T22:13:49.053Z,6.43
2018-05-18T22:16:17.352Z,6.30
2018-05-18T22:18:45.641Z,5.93
2018-05-18T22:21:13.914Z,5.93
2018-05-18T22:23:42.218Z,5.57
2018-05-18T22:26:10.512Z,4.90
2018-05-18T22:28:38.783Z,6.70
2018-05-18T22:31:07.066Z,6.27
2018-05-18T22:33:35.353Z,5.60
2018-05-18T22:36:03.634Z,6.53
2018-05-18T22:38:31.949Z,6.43
2018-05-18T22:41:00.245Z,5.73
2018-05-18T22:43:28.625Z,5.90
2018-05-18T22:45:56.897Z,6.70
2018-05-18T22:48:25.199Z,5.53
2018-05-18T22:50:53.477Z,7.13
2018-05-18T22:53:21.762Z,6.87
2018-05-18T22:55:50.054Z,6.07
2018-05-18T22:58:18.342Z,5.97
2018-05-18T23:00:46.632Z,6.30
2018-05-18T23:03:14.922Z,6.90
2018-05-18T23:05:43.205Z,5.80
2018-05-18T23:08:11.488Z,6.30
2018-05-18T23:10:39.774Z,5.80
2018-05-18T23:13:08.049Z,5.93
2018-05-18T23:15:36.319Z,6.80
2018-05-18T23:18:04.615Z,5.90
2018-05-18T23:20:32.889Z,5.70
2018-05-18T23:23:01.179Z,6.50
2018-05-18T23:25:29.463Z,5.77
2018-05-18T23:27:57.745Z,6.30
2018-05-18T23:30:26.030Z,5.73
2018-05-18T23:32:54.386Z,5.97
2018-05-18T23:35:22.667Z,5.40
2018-05-18T23:37:50.954Z,6.73
2018-05-18T23:40:19.233Z,6.83
2018-05-18T23:42:47.518Z,6.00
2018-05-18T23:45:15.797Z,6.73
2018-05-18T23:47:44.112Z,5.30
2018-05-18T23:50:12.378Z,5.43
2018-05-18T23:52:40.657Z,6.70
2018-05-18T23:55:08.946Z,7.00
2018-05-18T23:57:37.218Z,6.73
